sensor_id;sensor_type;location;lat;lon;timestamp;temperature;humidity
74540;SHT31;66042;51.090;-115.340;2023-07-29T00:02:22;28.22;34.48
74540;SHT31;66042;51.090;-115.340;2023-07-29T00:04:49;27.32;35.30
74540;SHT31;66042;51.090;-115.340;2023-07-29T00:07:16;26.56;36.54
74540;SHT31;66042;51.090;-115.340;2023-07-29T00:09:43;25.95;37.38
74540;SHT31;66042;51.090;-115.340;2023-07-29T00:12:09;25.69;37.87
74540;SHT31;66042;51.090;-115.340;2023-07-29T00:14:36;25.64;37.97
74540;SHT31;66042;51.090;-115.340;2023-07-29T00:17:03;25.46;38.35
74540;SHT31;66042;51.090;-115.340;2023-07-29T00:19:31;24.97;39.01
74540;SHT31;66042;51.090;-115.340;2023-07-29T00:21:59;24.51;39.92
74540;SHT31;66042;51.090;-115.340;2023-07-29T00:24:26;24.00;40.56
74540;SHT31;66042;51.090;-115.340;2023-07-29T00:26:53;23.54;41.45
74540;SHT31;66042;51.090;-115.340;2023-07-29T00:29:24;23.14;42.28
74540;SHT31;66042;51.090;-115.340;2023-07-29T00:31:50;22.83;43.05
74540;SHT31;66042;51.090;-115.340;2023-07-29T00:34:17;22.55;43.79
74540;SHT31;66042;51.090;-115.340;2023-07-29T00:36:47;22.25;44.42
74540;SHT31;66042;51.090;-115.340;2023-07-29T00:39:14;22.00;45.09
74540;SHT31;66042;51.090;-115.340;2023-07-29T00:41:41;21.79;45.77
74540;SHT31;66042;51.090;-115.340;2023-07-29T00:44:07;21.61;46.41
74540;SHT31;66042;51.090;-115.340;2023-07-29T00:46:34;21.43;46.81
74540;SHT31;66042;51.090;-115.340;2023-07-29T00:49:06;21.24;47.30
74540;SHT31;66042;51.090;-115.340;2023-07-29T00:51:34;21.01;47.84
74540;SHT31;66042;51.090;-115.340;2023-07-29T00:54:01;20.79;48.55
74540;SHT31;66042;51.090;-115.340;2023-07-29T00:56:28;20.50;49.05
74540;SHT31;66042;51.090;-115.340;2023-07-29T00:58:55;20.31;49.64
74540;SHT31;66042;51.090;-115.340;2023-07-29T01:01:25;20.15;50.11
74540;SHT31;66042;51.090;-115.340;2023-07-29T01:03:53;19.99;50.65
74540;SHT31;66042;51.090;-115.340;2023-07-29T01:06:34;19.90;50.89
74540;SHT31;66042;51.090;-115.340;2023-07-29T01:12:36;19.61;51.85
74540;SHT31;66042;51.090;-115.340;2023-07-29T01:15:28;19.45;52.35
74540;SHT31;66042;51.090;-115.340;2023-07-29T01:18:11;19.33;52.60
74540;SHT31;66042;51.090;-115.340;2023-07-29T01:20:50;19.21;52.84
74540;SHT31;66042;51.090;-115.340;2023-07-29T01:23:29;19.06;53.06
74540;SHT31;66042;51.090;-115.340;2023-07-29T01:25:59;18.99;53.18
74540;SHT31;66042;51.090;-115.340;2023-07-29T01:28:27;18.95;53.39
74540;SHT31;66042;51.090;-115.340;2023-07-29T01:31:42;18.93;53.54
74540;SHT31;66042;51.090;-115.340;2023-07-29T01:34:28;18.88;54.03
74540;SHT31;66042;51.090;-115.340;2023-07-29T01:37:07;18.84;54.14
74540;SHT31;66042;51.090;-115.340;2023-07-29T01:39:43;18.82;54.46
74540;SHT31;66042;51.090;-115.340;2023-07-29T01:42:11;18.79;54.70
74540;SHT31;66042;51.090;-115.340;2023-07-29T01:44:38;18.74;54.71
74540;SHT31;66042;51.090;-115.340;2023-07-29T01:47:08;18.77;54.67
74540;SHT31;66042;51.090;-115.340;2023-07-29T01:49:40;18.75;54.86
74540;SHT31;66042;51.090;-115.340;2023-07-29T01:52:11;18.69;55.05
74540;SHT31;66042;51.090;-115.340;2023-07-29T01:54:38;18.63;55.22
74540;SHT31;66042;51.090;-115.340;2023-07-29T01:57:11;18.51;55.66
74540;SHT31;66042;51.090;-115.340;2023-07-29T01:59:38;18.37;56.03
74540;SHT31;66042;51.090;-115.340;2023-07-29T02:02:05;18.28;56.21
74540;SHT31;66042;51.090;-115.340;2023-07-29T02:04:32;18.19;56.50
74540;SHT31;66042;51.090;-115.340;2023-07-29T02:06:59;18.11;56.52
74540;SHT31;66042;51.090;-115.340;2023-07-29T02:09:26;18.08;56.98
74540;SHT31;66042;51.090;-115.340;2023-07-29T02:11:52;17.97;56.96
74540;SHT31;66042;51.090;-115.340;2023-07-29T02:14:19;17.85;57.24
74540;SHT31;66042;51.090;-115.340;2023-07-29T02:16:46;17.74;57.61
74540;SHT31;66042;51.090;-115.340;2023-07-29T02:19:13;17.69;57.76
74540;SHT31;66042;51.090;-115.340;2023-07-29T02:21:39;17.68;58.07
74540;SHT31;66042;51.090;-115.340;2023-07-29T02:24:06;17.60;58.34
74540;SHT31;66042;51.090;-115.340;2023-07-29T02:26:36;17.52;58.56
74540;SHT31;66042;51.090;-115.340;2023-07-29T02:29:02;17.48;58.74
74540;SHT31;66042;51.090;-115.340;2023-07-29T02:31:29;17.41;58.77
74540;SHT31;66042;51.090;-115.340;2023-07-29T02:33:56;17.35;58.97
74540;SHT31;66042;51.090;-115.340;2023-07-29T02:36:23;17.27;59.02
74540;SHT31;66042;51.090;-115.340;2023-07-29T02:38:50;17.23;59.19
74540;SHT31;66042;51.090;-115.340;2023-07-29T02:41:16;17.17;59.26
74540;SHT31;66042;51.090;-115.340;2023-07-29T02:43:43;17.12;59.42
74540;SHT31;66042;51.090;-115.340;2023-07-29T02:46:14;17.08;59.43
74540;SHT31;66042;51.090;-115.340;2023-07-29T02:48:42;17.05;59.68
74540;SHT31;66042;51.090;-115.340;2023-07-29T02:51:10;17.00;59.81
74540;SHT31;66042;51.090;-115.340;2023-07-29T02:53:37;16.96;59.90
74540;SHT31;66042;51.090;-115.340;2023-07-29T02:56:04;16.91;60.32
74540;SHT31;66042;51.090;-115.340;2023-07-29T02:58:35;16.87;60.18
74540;SHT31;66042;51.090;-115.340;2023-07-29T03:01:04;16.84;60.35
74540;SHT31;66042;51.090;-115.340;2023-07-29T03:03:32;16.81;60.28
74540;SHT31;66042;51.090;-115.340;2023-07-29T03:08:30;16.80;60.35
74540;SHT31;66042;51.090;-115.340;2023-07-29T03:10:57;16.73;60.66
74540;SHT31;66042;51.090;-115.340;2023-07-29T03:13:24;16.68;60.82
74540;SHT31;66042;51.090;-115.340;2023-07-29T03:15:51;16.66;60.85
74540;SHT31;66042;51.090;-115.340;2023-07-29T03:18:18;16.64;61.08
74540;SHT31;66042;51.090;-115.340;2023-07-29T03:20:45;16.62;61.08
74540;SHT31;66042;51.090;-115.340;2023-07-29T03:23:14;16.60;61.11
74540;SHT31;66042;51.090;-115.340;2023-07-29T03:25:41;16.59;61.29
74540;SHT31;66042;51.090;-115.340;2023-07-29T03:28:08;16.56;61.44
74540;SHT31;66042;51.090;-115.340;2023-07-29T03:30:35;16.55;61.56
74540;SHT31;66042;51.090;-115.340;2023-07-29T03:33:02;16.52;61.93
74540;SHT31;66042;51.090;-115.340;2023-07-29T03:35:30;16.50;61.83
74540;SHT31;66042;51.090;-115.340;2023-07-29T03:37:56;16.50;62.07
74540;SHT31;66042;51.090;-115.340;2023-07-29T03:40:23;16.49;62.18
74540;SHT31;66042;51.090;-115.340;2023-07-29T03:42:50;16.46;62.34
74540;SHT31;66042;51.090;-115.340;2023-07-29T03:45:17;16.44;62.44
74540;SHT31;66042;51.090;-115.340;2023-07-29T03:47:44;16.41;62.78
74540;SHT31;66042;51.090;-115.340;2023-07-29T03:50:11;16.32;63.17
74540;SHT31;66042;51.090;-115.340;2023-07-29T03:52:37;16.26;63.23
74540;SHT31;66042;51.090;-115.340;2023-07-29T03:55:04;16.23;63.33
74540;SHT31;66042;51.090;-115.340;2023-07-29T03:57:31;16.23;63.65
74540;SHT31;66042;51.090;-115.340;2023-07-29T03:59:58;16.24;63.79
74540;SHT31;66042;51.090;-115.340;2023-07-29T04:02:25;16.25;63.68
74540;SHT31;66042;51.090;-115.340;2023-07-29T04:04:52;16.28;63.64
74540;SHT31;66042;51.090;-115.340;2023-07-29T04:07:19;16.27;63.77
74540;SHT31;66042;51.090;-115.340;2023-07-29T04:09:46;16.28;63.78
74540;SHT31;66042;51.090;-115.340;2023-07-29T04:12:13;16.27;63.94
74540;SHT31;66042;51.090;-115.340;2023-07-29T04:14:39;16.27;64.28
74540;SHT31;66042;51.090;-115.340;2023-07-29T04:17:07;16.20;64.50
74540;SHT31;66042;51.090;-115.340;2023-07-29T04:19:33;16.16;64.33
74540;SHT31;66042;51.090;-115.340;2023-07-29T04:22:00;16.17;64.40
74540;SHT31;66042;51.090;-115.340;2023-07-29T04:24:27;16.17;64.46
74540;SHT31;66042;51.090;-115.340;2023-07-29T04:26:54;16.15;64.75
74540;SHT31;66042;51.090;-115.340;2023-07-29T04:29:21;16.14;64.47
74540;SHT31;66042;51.090;-115.340;2023-07-29T04:31:50;16.17;64.37
74540;SHT31;66042;51.090;-115.340;2023-07-29T04:34:18;16.17;64.45
74540;SHT31;66042;51.090;-115.340;2023-07-29T04:36:46;16.16;64.62
74540;SHT31;66042;51.090;-115.340;2023-07-29T04:39:13;16.14;64.58
74540;SHT31;66042;51.090;-115.340;2023-07-29T04:41:41;16.14;64.51
74540;SHT31;66042;51.090;-115.340;2023-07-29T04:44:08;16.13;64.68
74540;SHT31;66042;51.090;-115.340;2023-07-29T04:46:35;16.12;64.71
74540;SHT31;66042;51.090;-115.340;2023-07-29T04:49:04;16.11;64.86
74540;SHT31;66042;51.090;-115.340;2023-07-29T04:51:30;16.08;64.93
74540;SHT31;66042;51.090;-115.340;2023-07-29T04:53:58;16.09;64.89
74540;SHT31;66042;51.090;-115.340;2023-07-29T04:56:24;16.09;65.31
74540;SHT31;66042;51.090;-115.340;2023-07-29T04:58:51;16.01;65.76
74540;SHT31;66042;51.090;-115.340;2023-07-29T05:01:19;16.00;65.63
74540;SHT31;66042;51.090;-115.340;2023-07-29T05:03:46;15.98;65.54
74540;SHT31;66042;51.090;-115.340;2023-07-29T05:06:13;16.01;65.54
74540;SHT31;66042;51.090;-115.340;2023-07-29T05:08:40;16.02;65.45
74540;SHT31;66042;51.090;-115.340;2023-07-29T05:11:07;16.02;65.49
74540;SHT31;66042;51.090;-115.340;2023-07-29T05:13:34;16.03;65.42
74540;SHT31;66042;51.090;-115.340;2023-07-29T05:16:02;16.02;65.52
74540;SHT31;66042;51.090;-115.340;2023-07-29T05:18:29;16.00;65.77
74540;SHT31;66042;51.090;-115.340;2023-07-29T05:20:56;15.93;65.83
74540;SHT31;66042;51.090;-115.340;2023-07-29T05:23:22;15.95;65.50
74540;SHT31;66042;51.090;-115.340;2023-07-29T05:25:50;15.96;65.63
74540;SHT31;66042;51.090;-115.340;2023-07-29T05:28:16;15.94;65.96
74540;SHT31;66042;51.090;-115.340;2023-07-29T05:30:43;15.90;66.00
74540;SHT31;66042;51.090;-115.340;2023-07-29T05:33:10;15.89;66.07
74540;SHT31;66042;51.090;-115.340;2023-07-29T05:35:37;15.89;65.89
74540;SHT31;66042;51.090;-115.340;2023-07-29T05:38:04;15.90;65.79
74540;SHT31;66042;51.090;-115.340;2023-07-29T05:40:33;15.93;65.84
74540;SHT31;66042;51.090;-115.340;2023-07-29T05:43:00;15.93;66.11
74540;SHT31;66042;51.090;-115.340;2023-07-29T05:45:28;15.92;66.08
74540;SHT31;66042;51.090;-115.340;2023-07-29T05:47:56;15.92;66.04
74540;SHT31;66042;51.090;-115.340;2023-07-29T05:50:23;15.93;66.23
74540;SHT31;66042;51.090;-115.340;2023-07-29T05:52:53;15.91;66.14
74540;SHT31;66042;51.090;-115.340;2023-07-29T05:55:19;15.91;66.06
74540;SHT31;66042;51.090;-115.340;2023-07-29T05:57:46;15.90;66.20
74540;SHT31;66042;51.090;-115.340;2023-07-29T06:00:13;15.88;66.11
74540;SHT31;66042;51.090;-115.340;2023-07-29T06:02:40;15.85;66.37
74540;SHT31;66042;51.090;-115.340;2023-07-29T06:05:07;15.83;66.28
74540;SHT31;66042;51.090;-115.340;2023-07-29T06:07:34;15.81;66.62
74540;SHT31;66042;51.090;-115.340;2023-07-29T06:10:01;15.80;66.77
74540;SHT31;66042;51.090;-115.340;2023-07-29T06:12:28;15.76;66.88
74540;SHT31;66042;51.090;-115.340;2023-07-29T06:14:55;15.73;66.98
74540;SHT31;66042;51.090;-115.340;2023-07-29T06:17:22;15.72;66.93
74540;SHT31;66042;51.090;-115.340;2023-07-29T06:19:49;15.70;66.86
74540;SHT31;66042;51.090;-115.340;2023-07-29T06:22:17;15.71;66.79
74540;SHT31;66042;51.090;-115.340;2023-07-29T06:24:43;15.71;66.88
74540;SHT31;66042;51.090;-115.340;2023-07-29T06:27:10;15.70;67.03
74540;SHT31;66042;51.090;-115.340;2023-07-29T06:29:37;15.70;66.94
74540;SHT31;66042;51.090;-115.340;2023-07-29T06:32:04;15.72;66.83
74540;SHT31;66042;51.090;-115.340;2023-07-29T06:34:32;15.74;66.71
74540;SHT31;66042;51.090;-115.340;2023-07-29T06:36:58;15.77;66.68
74540;SHT31;66042;51.090;-115.340;2023-07-29T06:39:26;15.77;66.87
74540;SHT31;66042;51.090;-115.340;2023-07-29T06:41:55;15.74;66.82
74540;SHT31;66042;51.090;-115.340;2023-07-29T06:44:22;15.73;66.89
74540;SHT31;66042;51.090;-115.340;2023-07-29T06:46:49;15.70;67.17
74540;SHT31;66042;51.090;-115.340;2023-07-29T06:49:16;15.67;67.14
74540;SHT31;66042;51.090;-115.340;2023-07-29T06:51:43;15.64;67.28
74540;SHT31;66042;51.090;-115.340;2023-07-29T06:54:10;15.63;67.28
74540;SHT31;66042;51.090;-115.340;2023-07-29T06:56:37;15.61;67.36
74540;SHT31;66042;51.090;-115.340;2023-07-29T06:59:04;15.59;67.19
74540;SHT31;66042;51.090;-115.340;2023-07-29T07:01:35;15.62;67.03
74540;SHT31;66042;51.090;-115.340;2023-07-29T07:04:02;15.62;67.08
74540;SHT31;66042;51.090;-115.340;2023-07-29T07:06:30;15.62;67.16
74540;SHT31;66042;51.090;-115.340;2023-07-29T07:08:57;15.63;67.12
74540;SHT31;66042;51.090;-115.340;2023-07-29T07:11:24;15.62;67.19
74540;SHT31;66042;51.090;-115.340;2023-07-29T07:13:50;15.64;67.07
74540;SHT31;66042;51.090;-115.340;2023-07-29T07:16:18;15.64;67.10
74540;SHT31;66042;51.090;-115.340;2023-07-29T07:18:45;15.65;67.28
74540;SHT31;66042;51.090;-115.340;2023-07-29T07:21:11;15.67;67.12
74540;SHT31;66042;51.090;-115.340;2023-07-29T07:23:38;15.71;67.19
74540;SHT31;66042;51.090;-115.340;2023-07-29T07:26:05;15.73;67.02
74540;SHT31;66042;51.090;-115.340;2023-07-29T07:28:32;15.76;66.99
74540;SHT31;66042;51.090;-115.340;2023-07-29T07:30:59;15.75;67.18
74540;SHT31;66042;51.090;-115.340;2023-07-29T07:33:35;15.73;67.23
74540;SHT31;66042;51.090;-115.340;2023-07-29T07:36:02;15.71;67.33
74540;SHT31;66042;51.090;-115.340;2023-07-29T07:38:30;15.64;67.66
74540;SHT31;66042;51.090;-115.340;2023-07-29T07:40:57;15.61;67.58
74540;SHT31;66042;51.090;-115.340;2023-07-29T07:43:24;15.58;67.72
74540;SHT31;66042;51.090;-115.340;2023-07-29T07:45:51;15.56;67.75
74540;SHT31;66042;51.090;-115.340;2023-07-29T07:48:25;15.54;67.89
74540;SHT31;66042;51.090;-115.340;2023-07-29T07:50:53;15.53;68.09
74540;SHT31;66042;51.090;-115.340;2023-07-29T07:53:20;15.50;68.05
74540;SHT31;66042;51.090;-115.340;2023-07-29T07:55:47;15.50;68.03
74540;SHT31;66042;51.090;-115.340;2023-07-29T07:58:14;15.50;68.17
74540;SHT31;66042;51.090;-115.340;2023-07-29T08:00:41;15.49;68.06
74540;SHT31;66042;51.090;-115.340;2023-07-29T08:03:08;15.50;67.93
74540;SHT31;66042;51.090;-115.340;2023-07-29T08:05:35;15.52;67.83
74540;SHT31;66042;51.090;-115.340;2023-07-29T08:08:05;15.53;67.98
74540;SHT31;66042;51.090;-115.340;2023-07-29T08:10:32;15.48;68.01
74540;SHT31;66042;51.090;-115.340;2023-07-29T08:13:00;15.48;67.91
74540;SHT31;66042;51.090;-115.340;2023-07-29T08:15:26;15.46;67.97
74540;SHT31;66042;51.090;-115.340;2023-07-29T08:17:53;15.43;68.10
74540;SHT31;66042;51.090;-115.340;2023-07-29T08:20:21;15.39;68.41
74540;SHT31;66042;51.090;-115.340;2023-07-29T08:22:47;15.34;68.47
74540;SHT31;66042;51.090;-115.340;2023-07-29T08:25:14;15.36;68.24
74540;SHT31;66042;51.090;-115.340;2023-07-29T08:27:41;15.39;68.21
74540;SHT31;66042;51.090;-115.340;2023-07-29T08:30:09;15.40;68.26
74540;SHT31;66042;51.090;-115.340;2023-07-29T08:32:39;15.40;67.93
74540;SHT31;66042;51.090;-115.340;2023-07-29T08:35:06;15.41;68.04
74540;SHT31;66042;51.090;-115.340;2023-07-29T08:37:33;15.40;68.02
74540;SHT31;66042;51.090;-115.340;2023-07-29T08:39:59;15.40;67.89
74540;SHT31;66042;51.090;-115.340;2023-07-29T08:42:28;15.40;67.94
74540;SHT31;66042;51.090;-115.340;2023-07-29T08:45:06;15.39;68.17
74540;SHT31;66042;51.090;-115.340;2023-07-29T08:47:34;15.34;68.38
74540;SHT31;66042;51.090;-115.340;2023-07-29T08:50:01;15.32;68.33
74540;SHT31;66042;51.090;-115.340;2023-07-29T08:52:30;15.32;68.44
74540;SHT31;66042;51.090;-115.340;2023-07-29T08:55:00;15.31;68.27
74540;SHT31;66042;51.090;-115.340;2023-07-29T08:57:27;15.33;68.16
74540;SHT31;66042;51.090;-115.340;2023-07-29T08:59:56;15.34;68.13
74540;SHT31;66042;51.090;-115.340;2023-07-29T09:02:24;15.35;68.23
74540;SHT31;66042;51.090;-115.340;2023-07-29T09:04:51;15.32;68.24
74540;SHT31;66042;51.090;-115.340;2023-07-29T09:07:17;15.31;68.26
74540;SHT31;66042;51.090;-115.340;2023-07-29T09:09:46;15.27;68.27
74540;SHT31;66042;51.090;-115.340;2023-07-29T09:12:13;15.27;68.25
74540;SHT31;66042;51.090;-115.340;2023-07-29T09:14:39;15.26;68.34
74540;SHT31;66042;51.090;-115.340;2023-07-29T09:17:06;15.24;68.37
74540;SHT31;66042;51.090;-115.340;2023-07-29T09:19:35;15.23;68.63
74540;SHT31;66042;51.090;-115.340;2023-07-29T09:22:02;15.23;68.59
74540;SHT31;66042;51.090;-115.340;2023-07-29T09:24:29;15.23;68.46
74540;SHT31;66042;51.090;-115.340;2023-07-29T09:26:57;15.23;68.35
74540;SHT31;66042;51.090;-115.340;2023-07-29T09:29:27;15.24;68.46
74540;SHT31;66042;51.090;-115.340;2023-07-29T09:31:56;15.23;68.49
74540;SHT31;66042;51.090;-115.340;2023-07-29T09:34:50;15.21;68.62
74540;SHT31;66042;51.090;-115.340;2023-07-29T09:37:19;15.19;68.57
74540;SHT31;66042;51.090;-115.340;2023-07-29T09:39:48;15.17;68.68
74540;SHT31;66042;51.090;-115.340;2023-07-29T09:42:20;15.16;68.72
74540;SHT31;66042;51.090;-115.340;2023-07-29T09:44:49;15.16;68.71
74540;SHT31;66042;51.090;-115.340;2023-07-29T09:47:20;15.15;68.81
74540;SHT31;66042;51.090;-115.340;2023-07-29T09:49:49;15.14;68.69
74540;SHT31;66042;51.090;-115.340;2023-07-29T09:52:19;15.17;68.64
74540;SHT31;66042;51.090;-115.340;2023-07-29T09:54:48;15.18;68.52
74540;SHT31;66042;51.090;-115.340;2023-07-29T09:57:16;15.19;68.53
74540;SHT31;66042;51.090;-115.340;2023-07-29T09:59:54;15.14;68.72
74540;SHT31;66042;51.090;-115.340;2023-07-29T10:02:23;15.14;68.72
74540;SHT31;66042;51.090;-115.340;2023-07-29T10:04:54;15.11;68.82
74540;SHT31;66042;51.090;-115.340;2023-07-29T10:07:23;15.10;68.78
74540;SHT31;66042;51.090;-115.340;2023-07-29T10:09:52;15.11;68.77
74540;SHT31;66042;51.090;-115.340;2023-07-29T10:12:20;15.10;68.78
74540;SHT31;66042;51.090;-115.340;2023-07-29T10:14:50;15.08;68.84
74540;SHT31;66042;51.090;-115.340;2023-07-29T10:17:18;15.06;68.94
74540;SHT31;66042;51.090;-115.340;2023-07-29T10:19:47;15.07;68.82
74540;SHT31;66042;51.090;-115.340;2023-07-29T10:22:14;15.07;68.93
74540;SHT31;66042;51.090;-115.340;2023-07-29T10:24:47;15.02;69.24
74540;SHT31;66042;51.090;-115.340;2023-07-29T10:27:17;14.96;69.47
74540;SHT31;66042;51.090;-115.340;2023-07-29T10:29:46;14.92;69.72
74540;SHT31;66042;51.090;-115.340;2023-07-29T10:32:15;14.92;69.60
74540;SHT31;66042;51.090;-115.340;2023-07-29T10:34:42;14.93;69.58
74540;SHT31;66042;51.090;-115.340;2023-07-29T10:37:09;14.89;69.95
74540;SHT31;66042;51.090;-115.340;2023-07-29T10:39:40;14.87;69.83
74540;SHT31;66042;51.090;-115.340;2023-07-29T10:42:19;14.92;69.63
74540;SHT31;66042;51.090;-115.340;2023-07-29T10:44:47;14.94;69.74
74540;SHT31;66042;51.090;-115.340;2023-07-29T10:47:20;14.96;69.44
74540;SHT31;66042;51.090;-115.340;2023-07-29T10:49:57;15.00;69.48
74540;SHT31;66042;51.090;-115.340;2023-07-29T10:52:37;14.99;69.58
74540;SHT31;66042;51.090;-115.340;2023-07-29T10:55:28;15.01;69.75
74540;SHT31;66042;51.090;-115.340;2023-07-29T10:58:05;14.98;69.96
74540;SHT31;66042;51.090;-115.340;2023-07-29T11:00:34;14.97;69.94
74540;SHT31;66042;51.090;-115.340;2023-07-29T11:03:02;14.98;69.87
74540;SHT31;66042;51.090;-115.340;2023-07-29T11:05:45;15.01;69.68
74540;SHT31;66042;51.090;-115.340;2023-07-29T11:08:17;15.03;69.82
74540;SHT31;66042;51.090;-115.340;2023-07-29T11:11:05;15.01;69.97
74540;SHT31;66042;51.090;-115.340;2023-07-29T11:13:35;15.01;69.70
74540;SHT31;66042;51.090;-115.340;2023-07-29T11:16:04;15.01;69.66
74540;SHT31;66042;51.090;-115.340;2023-07-29T11:18:33;15.01;69.29
74540;SHT31;66042;51.090;-115.340;2023-07-29T11:21:01;15.02;69.18
74540;SHT31;66042;51.090;-115.340;2023-07-29T11:23:33;15.04;69.02
74540;SHT31;66042;51.090;-115.340;2023-07-29T11:26:03;15.03;68.75
74540;SHT31;66042;51.090;-115.340;2023-07-29T11:28:37;15.04;68.55
74540;SHT31;66042;51.090;-115.340;2023-07-29T11:31:05;15.05;68.59
74540;SHT31;66042;51.090;-115.340;2023-07-29T11:33:32;15.00;68.83
74540;SHT31;66042;51.090;-115.340;2023-07-29T11:35:59;14.96;69.00
74540;SHT31;66042;51.090;-115.340;2023-07-29T11:38:26;14.94;68.94
74540;SHT31;66042;51.090;-115.340;2023-07-29T11:40:58;14.95;68.71
74540;SHT31;66042;51.090;-115.340;2023-07-29T11:43:29;14.97;68.74
74540;SHT31;66042;51.090;-115.340;2023-07-29T11:46:00;14.94;69.01
74540;SHT31;66042;51.090;-115.340;2023-07-29T11:48:30;14.94;69.30
74540;SHT31;66042;51.090;-115.340;2023-07-29T11:50:59;14.92;69.82
74540;SHT31;66042;51.090;-115.340;2023-07-29T11:53:30;14.90;70.03
74540;SHT31;66042;51.090;-115.340;2023-07-29T11:55:57;14.90;70.08
74540;SHT31;66042;51.090;-115.340;2023-07-29T11:58:25;14.86;70.41
74540;SHT31;66042;51.090;-115.340;2023-07-29T12:00:52;14.81;70.58
74540;SHT31;66042;51.090;-115.340;2023-07-29T12:03:19;14.85;70.40
74540;SHT31;66042;51.090;-115.340;2023-07-29T12:05:47;14.86;70.61
74540;SHT31;66042;51.090;-115.340;2023-07-29T12:08:14;14.86;70.61
74540;SHT31;66042;51.090;-115.340;2023-07-29T12:10:42;14.86;70.62
74540;SHT31;66042;51.090;-115.340;2023-07-29T12:13:09;14.78;70.97
74540;SHT31;66042;51.090;-115.340;2023-07-29T12:15:37;14.68;71.27
74540;SHT31;66042;51.090;-115.340;2023-07-29T12:18:06;14.57;71.46
74540;SHT31;66042;51.090;-115.340;2023-07-29T12:20:32;14.59;71.22
74540;SHT31;66042;51.090;-115.340;2023-07-29T12:23:00;14.66;70.97
74540;SHT31;66042;51.090;-115.340;2023-07-29T12:25:28;14.72;70.94
74540;SHT31;66042;51.090;-115.340;2023-07-29T12:27:56;14.73;71.15
74540;SHT31;66042;51.090;-115.340;2023-07-29T12:30:29;14.74;70.93
74540;SHT31;66042;51.090;-115.340;2023-07-29T12:32:55;14.78;70.82
74540;SHT31;66042;51.090;-115.340;2023-07-29T12:35:22;14.80;70.55
74540;SHT31;66042;51.090;-115.340;2023-07-29T12:37:59;14.84;70.20
74540;SHT31;66042;51.090;-115.340;2023-07-29T12:40:26;14.84;70.16
74540;SHT31;66042;51.090;-115.340;2023-07-29T12:42:53;14.82;69.97
74540;SHT31;66042;51.090;-115.340;2023-07-29T12:45:23;14.85;69.76
74540;SHT31;66042;51.090;-115.340;2023-07-29T12:47:52;14.89;69.51
74540;SHT31;66042;51.090;-115.340;2023-07-29T12:50:20;14.87;69.60
74540;SHT31;66042;51.090;-115.340;2023-07-29T12:52:46;14.85;69.58
74540;SHT31;66042;51.090;-115.340;2023-07-29T12:55:14;14.85;69.52
74540;SHT31;66042;51.090;-115.340;2023-07-29T12:57:41;14.84;69.38
74540;SHT31;66042;51.090;-115.340;2023-07-29T13:00:10;14.87;69.25
74540;SHT31;66042;51.090;-115.340;2023-07-29T13:02:37;14.86;69.28
74540;SHT31;66042;51.090;-115.340;2023-07-29T13:05:05;14.88;69.24
74540;SHT31;66042;51.090;-115.340;2023-07-29T13:07:37;14.90;69.10
74540;SHT31;66042;51.090;-115.340;2023-07-29T13:10:08;14.90;69.06
74540;SHT31;66042;51.090;-115.340;2023-07-29T13:12:39;14.89;69.10
74540;SHT31;66042;51.090;-115.340;2023-07-29T13:15:06;14.89;69.23
74540;SHT31;66042;51.090;-115.340;2023-07-29T13:17:34;14.88;69.38
74540;SHT31;66042;51.090;-115.340;2023-07-29T13:20:02;14.90;69.32
74540;SHT31;66042;51.090;-115.340;2023-07-29T13:22:30;14.90;69.21
74540;SHT31;66042;51.090;-115.340;2023-07-29T13:25:00;14.91;69.34
74540;SHT31;66042;51.090;-115.340;2023-07-29T13:27:28;14.92;69.35
74540;SHT31;66042;51.090;-115.340;2023-07-29T13:29:55;14.93;69.43
74540;SHT31;66042;51.090;-115.340;2023-07-29T13:32:22;14.94;69.29
74540;SHT31;66042;51.090;-115.340;2023-07-29T13:34:49;14.95;69.09
74540;SHT31;66042;51.090;-115.340;2023-07-29T13:37:16;14.98;68.91
74540;SHT31;66042;51.090;-115.340;2023-07-29T13:39:42;14.97;68.89
74540;SHT31;66042;51.090;-115.340;2023-07-29T13:42:09;14.97;68.90
74540;SHT31;66042;51.090;-115.340;2023-07-29T13:44:36;14.97;69.11
74540;SHT31;66042;51.090;-115.340;2023-07-29T13:47:03;14.97;69.20
74540;SHT31;66042;51.090;-115.340;2023-07-29T13:49:32;14.97;69.32
74540;SHT31;66042;51.090;-115.340;2023-07-29T13:51:59;14.96;69.41
74540;SHT31;66042;51.090;-115.340;2023-07-29T13:54:26;14.96;69.38
74540;SHT31;66042;51.090;-115.340;2023-07-29T13:56:54;14.91;69.44
74540;SHT31;66042;51.090;-115.340;2023-07-29T13:59:20;14.91;69.24
74540;SHT31;66042;51.090;-115.340;2023-07-29T14:01:47;14.93;69.19
74540;SHT31;66042;51.090;-115.340;2023-07-29T14:04:13;14.90;69.34
74540;SHT31;66042;51.090;-115.340;2023-07-29T14:06:40;14.85;69.24
74540;SHT31;66042;51.090;-115.340;2023-07-29T14:09:07;14.84;69.29
74540;SHT31;66042;51.090;-115.340;2023-07-29T14:11:34;14.73;69.60
74540;SHT31;66042;51.090;-115.340;2023-07-29T14:14:02;14.62;69.87
74540;SHT31;66042;51.090;-115.340;2023-07-29T14:16:30;14.54;69.99
74540;SHT31;66042;51.090;-115.340;2023-07-29T14:18:57;14.51;70.04
74540;SHT31;66042;51.090;-115.340;2023-07-29T14:21:24;14.50;69.94
74540;SHT31;66042;51.090;-115.340;2023-07-29T14:23:50;14.56;69.98
74540;SHT31;66042;51.090;-115.340;2023-07-29T14:26:17;14.61;69.84
74540;SHT31;66042;51.090;-115.340;2023-07-29T14:28:44;14.68;69.53
74540;SHT31;66042;51.090;-115.340;2023-07-29T14:31:11;14.68;69.67
74540;SHT31;66042;51.090;-115.340;2023-07-29T14:33:39;14.74;69.80
74540;SHT31;66042;51.090;-115.340;2023-07-29T14:36:06;14.80;69.60
74540;SHT31;66042;51.090;-115.340;2023-07-29T14:38:33;14.89;69.27
74540;SHT31;66042;51.090;-115.340;2023-07-29T14:41:01;14.93;69.06
74540;SHT31;66042;51.090;-115.340;2023-07-29T14:43:32;14.98;69.23
74540;SHT31;66042;51.090;-115.340;2023-07-29T14:46:00;15.02;69.18
74540;SHT31;66042;51.090;-115.340;2023-07-29T14:48:27;15.07;69.06
74540;SHT31;66042;51.090;-115.340;2023-07-29T14:50:55;15.01;69.00
74540;SHT31;66042;51.090;-115.340;2023-07-29T14:53:22;15.01;69.11
74540;SHT31;66042;51.090;-115.340;2023-07-29T14:55:49;15.10;68.94
74540;SHT31;66042;51.090;-115.340;2023-07-29T14:58:17;15.11;68.84
74540;SHT31;66042;51.090;-115.340;2023-07-29T15:00:45;15.13;68.89
74540;SHT31;66042;51.090;-115.340;2023-07-29T15:03:12;15.19;67.84